Overview Statistics Trail Chart Weather Telemetry Raw packets
 

This is the latest recevied weather packets stored in our database for station/object IU1OLT-7. If no packets are shown the sender has not sent any weather packets the latest 10 day(s).

<< 2 3 4 5 6 7 8 >>
Time Temp. Humidity Pressure Rain* Wind** Luminosity Snow
1788499582 26.11° C 29% 1025.8 hPa - - - -
1788498682 25.56° C 41% 1025.8 hPa - - - -
1788497782 25.56° C 29% 1025.8 hPa - - - -
1788496882 28.89° C 20% 1025.7 hPa - - - -
1788495982 27.78° C 24% 1025.7 hPa - - - -
1788495082 27.78° C 28% 1025.6 hPa - - - -
1788494182 28.33° C 27% 1025.5 hPa - - - -
1788493282 27.22° C 35% 1025.7 hPa - - - -
1788491490 28.33° C 37% 1025.6 hPa - - - -
1788490590 28.33° C 30% 1025.5 hPa - - - -
1788489682 27.78° C 35% 1025.7 hPa - - - -
1788488782 27.22° C 35% 1025.7 hPa - - - -
1788487882 27.78° C 32% 1025.9 hPa - - - -
1788486983 28.33° C 33% 1025.8 hPa - - - -
1788486090 26.67° C 39% 1025.8 hPa - - - -
1788485190 27.22° C 35% 1025.8 hPa - - - -
1788484290 27.78° C 32% 1025.8 hPa - - - -
1788483390 28.33° C 33% 1025.7 hPa - - - -
1788482483 27.22° C 43% 1025.8 hPa - - - -
1788481582 27.78° C 43% 1025.9 hPa - - - -
1788480690 27.78° C 41% 1026 hPa - - - -
1788478881 28.33° C 39% 1026.1 hPa - - - -
1788477981 28.33° C 40% 1025.9 hPa - - - -
1788477081 28.33° C 40% 1026 hPa - - - -
1788476181 28.33° C 40% 1026 hPa - - - -

* Rain since midnight (hover to see other rain measurements)
** Current wind speed in m/s (hover to see current wind gust speed)